createdAt,value
2022-10-03T00:02:15.918Z,100437.64
2022-10-03T00:05:00.378Z,100436.81
2022-10-03T00:07:54.977Z,100439.24
2022-10-03T00:10:34.934Z,100439.17
2022-10-03T00:13:19.146Z,100445.10
2022-10-03T00:15:57.170Z,100442.05
2022-10-03T00:18:41.193Z,100443.96
2022-10-03T00:21:28.143Z,100442.92
2022-10-03T00:24:12.294Z,100438.88
2022-10-03T00:26:53.260Z,100436.55
2022-10-03T00:29:56.729Z,100437.59
2022-10-03T00:32:43.759Z,100433.91
2022-10-03T00:35:28.862Z,100435.27
2022-10-03T00:38:17.596Z,100430.16
2022-10-03T00:41:14.573Z,100428.23
2022-10-03T00:44:22.314Z,100426.08
2022-10-03T00:47:14.011Z,100427.14
2022-10-03T00:50:03.789Z,100428.70
2022-10-03T00:52:52.077Z,100423.95
2022-10-03T00:55:38.117Z,100419.84
2022-10-03T00:58:26.035Z,100412.08
2022-10-03T01:01:20.929Z,100415.05
2022-10-03T01:04:06.537Z,100414.09
2022-10-03T01:06:47.307Z,100415.79
2022-10-03T01:09:38.644Z,100416.23
2022-10-03T01:12:36.177Z,100419.65
2022-10-03T01:15:19.221Z,100416.71
2022-10-03T01:18:09.230Z,100414.17
2022-10-03T01:20:51.793Z,100418.63
2022-10-03T01:23:59.890Z,100416.67
2022-10-03T01:26:51.125Z,100415.73
2022-10-03T01:29:45.731Z,100417.30
2022-10-03T01:32:24.863Z,100418.06
2022-10-03T01:35:07.911Z,100417.98
2022-10-03T01:37:51.395Z,100416.13
2022-10-03T01:40:30.637Z,100413.54
2022-10-03T01:43:15.821Z,100413.59
2022-10-03T01:46:02.242Z,100414.02
2022-10-03T01:48:42.721Z,100411.85
2022-10-03T01:51:17.550Z,100412.27
2022-10-03T01:54:03.560Z,100412.36
2022-10-03T01:56:41.508Z,100408.91
2022-10-03T01:59:19.426Z,100412.38
2022-10-03T02:01:59.293Z,100415.41
2022-10-03T02:04:44.759Z,100417.42
2022-10-03T02:07:25.538Z,100414.54
2022-10-03T02:10:08.193Z,100413.05
2022-10-03T02:12:51.820Z,100419.65
2022-10-03T02:15:29.962Z,100412.35
2022-10-03T02:18:12.996Z,100410.88
2022-10-03T02:20:49.777Z,100411.52
2022-10-03T02:23:44.081Z,100412.86
2022-10-03T02:26:50.169Z,100412.67
2022-10-03T02:29:39.743Z,100416.33
2022-10-03T02:32:37.666Z,100411.87
2022-10-03T02:35:46.671Z,100412.17
2022-10-03T02:38:56.462Z,100415.44
2022-10-03T02:41:55.768Z,100413.45
2022-10-03T02:44:54.561Z,100419.88
2022-10-03T02:48:31.248Z,100420.26
2022-10-03T02:51:37.027Z,100417.55
2022-10-03T02:54:46.596Z,100427.13
2022-10-03T02:58:11.385Z,100423.17
2022-10-03T03:01:04.778Z,100419.50
2022-10-03T03:03:58.585Z,100420.48
2022-10-03T03:06:57.787Z,100417.98
2022-10-03T03:09:54.856Z,100419.11
2022-10-03T03:12:45.506Z,100414.83
2022-10-03T03:15:49.221Z,100411.34
2022-10-03T03:18:32.045Z,100413.02
2022-10-03T03:21:19.709Z,100407.46
2022-10-03T03:24:15.810Z,100408.79
2022-10-03T03:27:20.256Z,100405.98
2022-10-03T03:30:02.445Z,100410.25
2022-10-03T03:32:47.377Z,100412.36
2022-10-03T03:35:32.457Z,100414.78
2022-10-03T03:38:16.023Z,100413.27
2022-10-03T03:41:05.765Z,100412.80
2022-10-03T03:44:00.502Z,100416.35
2022-10-03T03:46:45.018Z,100414.98
2022-10-03T03:49:31.545Z,100415.29
2022-10-03T03:52:18.089Z,100417.30
2022-10-03T03:55:10.816Z,100416.70
2022-10-03T03:58:14.342Z,100419.52
2022-10-03T04:01:08.474Z,100415.38
2022-10-03T04:03:51.337Z,100419.17
2022-10-03T04:06:36.985Z,100412.17
2022-10-03T04:09:27.070Z,100410.29
2022-10-03T04:12:10.235Z,100408.77
2022-10-03T04:15:12.724Z,100416.05
2022-10-03T04:18:21.704Z,100407.48
2022-10-03T04:21:21.074Z,100410.68
2022-10-03T04:24:05.065Z,100402.13
2022-10-03T04:26:52.035Z,100405.61
2022-10-03T04:29:43.466Z,100407.61
2022-10-03T04:32:34.951Z,100405.20
2022-10-03T04:35:25.920Z,100403.48
2022-10-03T04:38:12.400Z,100402.45
2022-10-03T04:40:51.535Z,100401.46
2022-10-03T04:43:36.842Z,100399.41
2022-10-03T04:46:25.270Z,100402.29
2022-10-03T04:49:04.062Z,100404.67
2022-10-03T04:51:50.914Z,100404.95
2022-10-03T04:54:32.844Z,100410.55
2022-10-03T04:57:16.689Z,100407.70
2022-10-03T04:59:59.628Z,100411.20
2022-10-03T05:02:44.221Z,100410.61
2022-10-03T05:05:30.305Z,100414.45
2022-10-03T05:08:13.795Z,100413.48
2022-10-03T05:10:57.790Z,100413.08
2022-10-03T05:13:42.543Z,100413.06
2022-10-03T05:16:24.452Z,100417.27
2022-10-03T05:19:07.928Z,100418.09
2022-10-03T05:21:49.001Z,100418.42
2022-10-03T05:24:27.723Z,100417.46
2022-10-03T05:27:11.252Z,100414.92
2022-10-03T05:29:52.332Z,100430.26
2022-10-03T05:32:33.349Z,100432.55
2022-10-03T05:35:22.692Z,100433.95
2022-10-03T05:38:24.858Z,100442.39
2022-10-03T05:41:09.343Z,100445.94
2022-10-03T05:43:58.401Z,100448.58
2022-10-03T05:46:52.965Z,100454.29
2022-10-03T05:49:45.727Z,100455.11
2022-10-03T05:52:39.348Z,100463.25
2022-10-03T05:55:30.272Z,100463.52
2022-10-03T05:58:23.259Z,100468.52
2022-10-03T06:01:15.407Z,100466.08
2022-10-03T06:04:08.584Z,100467.78
2022-10-03T06:06:57.411Z,100469.13
2022-10-03T06:09:50.568Z,100479.60
2022-10-03T06:12:33.513Z,100479.80
2022-10-03T06:15:49.126Z,100482.30
2022-10-03T06:19:01.332Z,100490.35
2022-10-03T06:22:10.797Z,100499.16
2022-10-03T06:25:09.743Z,100496.45
2022-10-03T06:28:13.253Z,100500.16
2022-10-03T06:31:04.062Z,100499.15
2022-10-03T06:34:08.439Z,100491.58
2022-10-03T06:37:01.252Z,100500.27
2022-10-03T06:40:13.615Z,100495.36
2022-10-03T06:43:02.578Z,100487.30
2022-10-03T06:46:16.160Z,100494.49
2022-10-03T06:49:20.586Z,100500.80
2022-10-03T06:52:08.525Z,100507.98
2022-10-03T06:55:22.914Z,100514.55
2022-10-03T06:58:23.635Z,100518.64
2022-10-03T07:01:06.423Z,100520.27
2022-10-03T07:04:06.755Z,100524.56
2022-10-03T07:06:54.615Z,100523.06
2022-10-03T07:10:04.730Z,100520.80
2022-10-03T07:12:57.029Z,100521.77
2022-10-03T07:16:14.297Z,100525.15
2022-10-03T07:19:08.035Z,100526.54
2022-10-03T07:22:04.483Z,100531.45
2022-10-03T07:25:07.423Z,100534.90
2022-10-03T07:27:55.632Z,100536.34
2022-10-03T07:30:33.234Z,100536.87
2022-10-03T07:33:38.825Z,100535.67
2022-10-03T07:37:08.139Z,100536.86
2022-10-03T07:40:05.938Z,100542.10
2022-10-03T07:43:14.695Z,100538.80
2022-10-03T07:46:05.461Z,100547.45
2022-10-03T07:49:03.784Z,100549.01
2022-10-03T07:51:45.368Z,100555.84
2022-10-03T07:54:34.689Z,100567.33
2022-10-03T07:57:38.780Z,100568.52
2022-10-03T08:00:22.752Z,100574.14
2022-10-03T08:03:28.259Z,100571.21
2022-10-03T08:06:16.877Z,100573.31
2022-10-03T08:09:42.764Z,100584.42
2022-10-03T08:13:01.094Z,100590.71
2022-10-03T08:15:53.366Z,100592.44
2022-10-03T08:18:50.111Z,100598.88
2022-10-03T08:21:31.926Z,100600.70
2022-10-03T08:24:21.790Z,100601.27
2022-10-03T08:27:10.128Z,100606.05
2022-10-03T08:30:19.097Z,100605.54
2022-10-03T08:33:35.964Z,100596.00
2022-10-03T08:36:39.492Z,100607.54
2022-10-03T08:39:24.859Z,100611.17
2022-10-03T08:42:28.196Z,100623.05
2022-10-03T08:45:29.618Z,100623.48
2022-10-03T08:48:46.696Z,100628.48
2022-10-03T08:51:53.569Z,100638.61
2022-10-03T08:55:02.235Z,100647.29
2022-10-03T08:58:03.051Z,100650.02
2022-10-03T09:00:58.818Z,100655.95
2022-10-03T09:04:03.998Z,100663.20
2022-10-03T09:07:18.003Z,100661.78
2022-10-03T09:10:24.201Z,100665.34
2022-10-03T09:13:29.419Z,100671.33
2022-10-03T09:16:28.305Z,100675.46
2022-10-03T09:19:21.856Z,100677.27
2022-10-03T09:22:34.912Z,100670.02
2022-10-03T09:25:25.712Z,100662.48
2022-10-03T09:28:44.876Z,100664.77
2022-10-03T09:31:52.571Z,100666.29
2022-10-03T09:34:55.262Z,100673.48
2022-10-03T09:37:59.603Z,100683.09
2022-10-03T09:41:12.390Z,100679.41
2022-10-03T09:44:14.284Z,100685.24
2022-10-03T09:47:33.300Z,100688.09
2022-10-03T09:50:54.135Z,100690.95
2022-10-03T09:54:04.008Z,100698.77
2022-10-03T09:57:12.321Z,100695.20
2022-10-03T10:00:23.234Z,100696.34
2022-10-03T10:03:25.806Z,100691.48
2022-10-03T10:06:12.333Z,100704.05
2022-10-03T10:09:08.798Z,100697.37
2022-10-03T10:12:04.528Z,100699.88
2022-10-03T10:14:58.131Z,100703.30
2022-10-03T10:17:55.945Z,100702.95
2022-10-03T10:21:29.223Z,100707.64
2022-10-03T10:24:17.838Z,100709.38
2022-10-03T10:27:23.242Z,100705.42
2022-10-03T10:30:10.843Z,100719.98
2022-10-03T10:33:32.465Z,100716.65
2022-10-03T10:36:44.713Z,100720.04
2022-10-03T10:39:49.448Z,100730.30
2022-10-03T10:42:58.355Z,100730.98
2022-10-03T10:46:00.106Z,100738.46
2022-10-03T10:49:05.290Z,100737.40
2022-10-03T10:52:21.261Z,100747.70
2022-10-03T10:55:22.250Z,100740.19
2022-10-03T10:58:30.033Z,100740.23
2022-10-03T11:01:47.294Z,100738.51
2022-10-03T11:04:46.713Z,100742.85
2022-10-03T11:08:15.997Z,100735.14
2022-10-03T11:11:07.721Z,100744.60
2022-10-03T11:14:09.372Z,100745.61
2022-10-03T11:17:18.101Z,100758.51
2022-10-03T11:20:34.770Z,100763.03
2022-10-03T11:23:53.341Z,100760.52
2022-10-03T11:26:59.556Z,100753.77
2022-10-03T11:30:05.094Z,100767.30
2022-10-03T11:33:09.639Z,100788.79
2022-10-03T11:36:08.337Z,100815.11
2022-10-03T11:38:48.406Z,100828.18
2022-10-03T11:41:31.968Z,100828.64
2022-10-03T11:44:17.709Z,100820.70
2022-10-03T11:47:14.840Z,100812.85
2022-10-03T11:50:13.975Z,100802.39
2022-10-03T11:53:03.433Z,100808.38
2022-10-03T11:55:41.283Z,100802.59
2022-10-03T11:58:34.088Z,100799.75
2022-10-03T12:01:38.196Z,100801.02
2022-10-03T12:04:22.069Z,100801.08
2022-10-03T12:07:19.886Z,100805.42
2022-10-03T12:10:05.972Z,100806.69
2022-10-03T12:12:43.586Z,100804.04
2022-10-03T12:15:36.542Z,100800.98
2022-10-03T12:18:18.082Z,100804.64
2022-10-03T12:21:09.522Z,100802.15
2022-10-03T12:24:25.261Z,100806.77
2022-10-03T12:27:04.736Z,100808.74
2022-10-03T12:29:41.143Z,100807.47
2022-10-03T12:32:25.508Z,100810.56
2022-10-03T12:35:09.159Z,100817.31
2022-10-03T12:37:55.265Z,100819.34
2022-10-03T12:40:35.010Z,100819.23
2022-10-03T12:43:20.717Z,100822.20
2022-10-03T12:45:59.124Z,100823.89
2022-10-03T12:48:48.031Z,100819.14
2022-10-03T12:51:31.971Z,100823.57
2022-10-03T12:54:17.787Z,100831.89
2022-10-03T12:56:59.402Z,100831.25
2022-10-03T12:59:42.272Z,100832.01
2022-10-03T13:02:32.815Z,100836.16
2022-10-03T13:05:37.087Z,100837.70
2022-10-03T13:08:26.428Z,100831.07
2022-10-03T13:11:08.485Z,100832.84
2022-10-03T13:14:01.610Z,100835.52
2022-10-03T13:16:39.488Z,100839.10
2022-10-03T13:19:17.695Z,100843.39
2022-10-03T13:22:09.920Z,100850.27
2022-10-03T13:24:49.743Z,100848.55
2022-10-03T13:27:33.506Z,100839.67
2022-10-03T13:30:15.389Z,100850.49
2022-10-03T13:32:52.003Z,100844.19
2022-10-03T13:35:49.401Z,100848.39
2022-10-03T13:38:47.942Z,100845.30
2022-10-03T13:41:29.467Z,100846.58
2022-10-03T13:44:06.477Z,100848.03
2022-10-03T13:46:48.706Z,100851.99
2022-10-03T13:49:32.244Z,100848.20
2022-10-03T13:52:16.511Z,100855.63
2022-10-03T13:55:11.230Z,100852.30
2022-10-03T13:57:52.730Z,100852.04
2022-10-03T14:00:26.660Z,100858.39
2022-10-03T14:03:13.846Z,100854.39
2022-10-03T14:06:10.883Z,100855.89
2022-10-03T14:09:01.078Z,100861.13
2022-10-03T14:11:44.443Z,100863.89
2022-10-03T14:14:35.865Z,100864.45
2022-10-03T14:17:13.071Z,100866.70
2022-10-03T14:19:59.868Z,100871.02
2022-10-03T14:22:43.980Z,100872.42
2022-10-03T14:25:24.246Z,100870.23
2022-10-03T14:28:02.258Z,100872.36
2022-10-03T14:31:06.134Z,100875.80
2022-10-03T14:33:47.598Z,100876.51
2022-10-03T14:36:37.472Z,100877.92
2022-10-03T14:39:23.892Z,100879.05
2022-10-03T14:42:23.421Z,100885.14
2022-10-03T14:44:59.629Z,100883.38
2022-10-03T14:47:37.433Z,100881.85
2022-10-03T14:50:18.516Z,100885.36
2022-10-03T14:53:02.247Z,100884.89
2022-10-03T14:55:44.655Z,100892.44
2022-10-03T14:58:22.956Z,100886.14
2022-10-03T15:01:02.847Z,100888.78
2022-10-03T15:03:39.845Z,100886.69
2022-10-03T15:06:35.875Z,100889.44
2022-10-03T15:09:12.901Z,100890.36
2022-10-03T15:11:52.500Z,100892.09
2022-10-03T15:14:27.504Z,100898.94
2022-10-03T15:17:02.619Z,100906.64
2022-10-03T15:19:44.447Z,100907.29
2022-10-03T15:22:29.306Z,100903.83
2022-10-03T15:25:07.130Z,100908.89
2022-10-03T15:27:43.826Z,100911.88
2022-10-03T15:30:25.857Z,100909.19
2022-10-03T15:33:11.565Z,100907.92
2022-10-03T15:35:48.124Z,100907.26
2022-10-03T15:38:27.550Z,100907.36
2022-10-03T15:41:12.549Z,100906.75
2022-10-03T15:43:53.371Z,100908.59
2022-10-03T15:46:34.830Z,100906.44
2022-10-03T15:49:26.226Z,100913.94
2022-10-03T15:52:01.930Z,100916.48
2022-10-03T15:54:38.867Z,100918.77
2022-10-03T15:57:22.757Z,100916.78
2022-10-03T16:00:03.051Z,100922.95
2022-10-03T16:02:49.996Z,100922.56
2022-10-03T16:05:28.857Z,100925.96
2022-10-03T16:08:06.907Z,100925.15
2022-10-03T16:10:42.645Z,100929.27
2022-10-03T16:13:32.080Z,100928.98
2022-10-03T16:16:34.513Z,100932.33
2022-10-03T16:19:25.951Z,100934.69
2022-10-03T16:22:05.825Z,100933.24
2022-10-03T16:24:44.545Z,100932.91
2022-10-03T16:27:21.438Z,100938.86
2022-10-03T16:30:04.259Z,100937.80
2022-10-03T16:32:45.323Z,100944.73
2022-10-03T16:35:31.423Z,100945.08
2022-10-03T16:38:08.258Z,100945.08
2022-10-03T16:40:40.550Z,100945.66
2022-10-03T16:43:19.458Z,100948.48
2022-10-03T16:45:52.288Z,100949.13
2022-10-03T16:48:46.947Z,100952.41
2022-10-03T16:51:22.687Z,100955.46
2022-10-03T16:53:57.038Z,100950.48
2022-10-03T16:56:38.184Z,100952.40
2022-10-03T16:59:19.119Z,100958.63
2022-10-03T17:01:55.591Z,100957.36
2022-10-03T17:04:33.905Z,100957.82
2022-10-03T17:07:09.497Z,100957.13
2022-10-03T17:09:46.486Z,100957.75
2022-10-03T17:14:01.252Z,100957.57
2022-10-03T17:16:45.172Z,100962.16
2022-10-03T17:19:30.535Z,100963.45
2022-10-03T17:22:13.029Z,100962.63
2022-10-03T17:24:50.225Z,100959.61
2022-10-03T17:27:29.994Z,100961.20
2022-10-03T17:30:06.244Z,100961.52
2022-10-03T17:32:43.293Z,100963.60
2022-10-03T17:35:21.620Z,100960.83
2022-10-03T17:41:22.481Z,100958.23
2022-10-03T17:44:17.384Z,100957.80
2022-10-03T17:46:59.981Z,100954.69
2022-10-03T17:49:46.119Z,100959.10
2022-10-03T17:52:21.453Z,100963.44
2022-10-03T17:54:57.113Z,100968.60
2022-10-03T17:57:37.007Z,100965.27
2022-10-03T18:00:18.391Z,100966.38
2022-10-03T18:02:58.810Z,100966.73
2022-10-03T18:05:35.501Z,100966.45
2022-10-03T18:08:14.475Z,100966.16
2022-10-03T18:10:56.020Z,100964.05
2022-10-03T18:13:37.188Z,100964.79
2022-10-03T18:16:24.031Z,100962.09
2022-10-03T18:19:23.486Z,100962.81
2022-10-03T18:22:04.951Z,100964.05
2022-10-03T18:24:55.183Z,100966.19
2022-10-03T18:28:05.260Z,100971.15
2022-10-03T18:30:46.374Z,100970.57
2022-10-03T18:33:21.601Z,100966.52
2022-10-03T18:35:54.647Z,100966.65
2022-10-03T18:38:28.939Z,100964.86
2022-10-03T18:41:02.883Z,100967.80
2022-10-03T18:43:45.232Z,100962.98
2022-10-03T18:46:22.043Z,100965.55
2022-10-03T18:49:32.989Z,100966.77
2022-10-03T18:52:00.418Z,100971.52
2022-10-03T18:54:45.137Z,100970.38
2022-10-03T18:57:24.634Z,100969.27
2022-10-03T19:00:02.867Z,100969.42
2022-10-03T19:02:39.476Z,100971.15
2022-10-03T19:05:19.187Z,100971.16
2022-10-03T19:07:58.117Z,100972.62
2022-10-03T19:10:38.530Z,100972.19
2022-10-03T19:13:19.553Z,100971.41
2022-10-03T19:16:13.157Z,100968.48
2022-10-03T19:18:50.721Z,100972.64
2022-10-03T19:21:23.442Z,100971.31
2022-10-03T19:24:05.549Z,100972.42
2022-10-03T19:26:40.134Z,100967.28
2022-10-03T19:29:14.654Z,100965.41
2022-10-03T19:31:59.006Z,100965.95
2022-10-03T19:34:37.136Z,100969.30
2022-10-03T19:37:17.190Z,100968.05
2022-10-03T19:39:49.433Z,100969.48
2022-10-03T19:42:40.342Z,100969.42
2022-10-03T19:45:15.258Z,100967.13
2022-10-03T19:47:56.581Z,100965.42
2022-10-03T19:50:32.963Z,100964.96
2022-10-03T19:53:16.130Z,100962.05
2022-10-03T19:55:51.281Z,100961.59
2022-10-03T19:58:25.217Z,100959.06
2022-10-03T20:00:59.985Z,100964.23
2022-10-03T20:03:44.138Z,100956.98
2022-10-03T20:06:24.125Z,100956.96
2022-10-03T20:09:01.397Z,100952.14
2022-10-03T20:11:45.771Z,100955.13
2022-10-03T20:14:23.738Z,100950.69
2022-10-03T20:17:01.121Z,100950.30
2022-10-03T20:19:38.912Z,100953.20
2022-10-03T20:22:15.544Z,100962.55
2022-10-03T20:24:48.191Z,100958.86
2022-10-03T20:27:32.879Z,100962.13
2022-10-03T20:30:31.563Z,100959.35
2022-10-03T20:33:05.370Z,100963.91
2022-10-03T20:35:52.432Z,100963.52
2022-10-03T20:38:33.653Z,100966.60
2022-10-03T20:41:10.673Z,100965.79
2022-10-03T20:43:47.687Z,100965.39
2022-10-03T20:46:25.495Z,100967.71
2022-10-03T20:49:21.828Z,100966.70
2022-10-03T20:52:03.491Z,100962.20
2022-10-03T20:54:48.526Z,100965.01
2022-10-03T20:57:22.986Z,100966.30
2022-10-03T21:00:04.505Z,100964.20
2022-10-03T21:02:41.863Z,100963.67
2022-10-03T21:05:23.873Z,100959.06
2022-10-03T21:07:59.676Z,100958.98
2022-10-03T21:10:34.887Z,100956.73
2022-10-03T21:13:14.434Z,100954.40
2022-10-03T21:15:50.997Z,100953.85
2022-10-03T21:18:26.683Z,100956.10
2022-10-03T21:21:08.982Z,100953.14
2022-10-03T21:23:45.514Z,100949.30
2022-10-03T21:26:25.178Z,100952.60
2022-10-03T21:29:17.344Z,100953.59
2022-10-03T21:31:59.188Z,100948.51
2022-10-03T21:34:41.702Z,100944.54
2022-10-03T21:37:23.622Z,100941.51
2022-10-03T21:40:07.577Z,100936.02
2022-10-03T21:42:49.176Z,100932.52
2022-10-03T21:45:32.669Z,100932.18
2022-10-03T21:48:13.329Z,100926.15
2022-10-03T21:50:53.716Z,100919.29
2022-10-03T21:53:32.134Z,100916.80
2022-10-03T21:56:23.663Z,100912.54
2022-10-03T21:59:19.065Z,100907.67
2022-10-03T22:01:59.839Z,100905.92
2022-10-03T22:04:41.028Z,100905.77
2022-10-03T22:07:17.140Z,100905.17
2022-10-03T22:09:56.142Z,100903.33
2022-10-03T22:12:31.303Z,100909.63
2022-10-03T22:15:10.674Z,100903.86
2022-10-03T22:17:49.623Z,100909.10
2022-10-03T22:20:23.893Z,100908.71
2022-10-03T22:23:05.968Z,100911.59
2022-10-03T22:25:52.817Z,100917.81
2022-10-03T22:28:35.395Z,100919.07
2022-10-03T22:31:14.699Z,100914.89
2022-10-03T22:34:00.474Z,100915.13
2022-10-03T22:36:34.488Z,100922.98
2022-10-03T22:39:11.576Z,100918.73
2022-10-03T22:41:46.815Z,100919.23
2022-10-03T22:44:23.067Z,100918.41
2022-10-03T22:46:57.921Z,100917.33
2022-10-03T22:49:35.216Z,100920.85
2022-10-03T22:52:10.176Z,100915.38
2022-10-03T22:54:47.303Z,100914.64
2022-10-03T22:57:20.252Z,100917.23
2022-10-03T22:59:56.107Z,100914.31
2022-10-03T23:02:34.979Z,100917.24
2022-10-03T23:05:10.814Z,100913.51
2022-10-03T23:07:57.655Z,100912.48
2022-10-03T23:10:44.201Z,100914.88
2022-10-03T23:13:30.517Z,100910.19
2022-10-03T23:16:14.015Z,100912.42
2022-10-03T23:19:04.769Z,100905.30
2022-10-03T23:21:44.718Z,100902.48
2022-10-03T23:24:24.289Z,100900.89
2022-10-03T23:27:31.644Z,100905.50
2022-10-03T23:30:34.305Z,100903.23
2022-10-03T23:33:15.524Z,100906.71
2022-10-03T23:35:49.651Z,100907.31
2022-10-03T23:39:07.576Z,100912.05
2022-10-03T23:41:57.165Z,100909.82
2022-10-03T23:44:35.664Z,100912.94
2022-10-03T23:47:13.351Z,100916.29
2022-10-03T23:49:47.619Z,100916.08
2022-10-03T23:52:25.072Z,100920.27
2022-10-03T23:55:02.387Z,100927.77
2022-10-03T23:57:38.699Z,100933.88
